createdAt,value
2023-02-15T00:04:41.038Z,89.1
2023-02-15T00:09:41.619Z,88.6
2023-02-15T00:14:42.117Z,90.8
2023-02-15T00:19:42.590Z,90.5
2023-02-15T00:24:43.102Z,87.2
2023-02-15T00:29:43.568Z,92.2
2023-02-15T00:34:44.026Z,90.7
2023-02-15T00:39:44.850Z,83.3
2023-02-15T00:44:45.293Z,87.4
2023-02-15T00:49:45.867Z,91
2023-02-15T00:54:46.342Z,82.8
2023-02-15T00:59:46.818Z,86
2023-02-15T01:04:47.501Z,86.6
2023-02-15T01:09:48.254Z,90.3
2023-02-15T01:14:48.881Z,87.6
2023-02-15T01:19:49.470Z,89.1
2023-02-15T01:24:49.930Z,90.4
2023-02-15T01:29:50.296Z,90.5
2023-02-15T01:34:50.956Z,93.6
2023-02-15T01:39:51.505Z,89.7
2023-02-15T01:44:51.906Z,93.6
2023-02-15T01:49:52.569Z,93.1
2023-02-15T01:54:53.063Z,93.8
2023-02-15T01:59:53.503Z,94
2023-02-15T02:04:54.204Z,93.9
2023-02-15T02:09:54.554Z,94.6
2023-02-15T02:14:55.026Z,105.5
2023-02-15T02:19:55.812Z,98.5
2023-02-15T02:24:56.297Z,100.2
2023-02-15T02:29:56.704Z,100.8
2023-02-15T02:34:57.174Z,95.6
2023-02-15T02:39:57.682Z,95.4
2023-02-15T02:44:58.144Z,98.4
2023-02-15T02:49:58.758Z,93.1
2023-02-15T02:54:59.137Z,92.3
2023-02-15T02:59:59.635Z,90.7
2023-02-15T03:05:01.712Z,93.1
2023-02-15T03:10:02.368Z,99.4
2023-02-15T03:15:02.833Z,93.7
2023-02-15T03:20:03.379Z,93.4
2023-02-15T03:25:03.804Z,85.6
2023-02-15T03:30:04.233Z,93.1
2023-02-15T03:35:04.765Z,91
2023-02-15T03:40:05.334Z,92.9
2023-02-15T03:45:05.838Z,162
2023-02-15T03:50:06.575Z,85.7
2023-02-15T03:55:07.004Z,84.2
2023-02-15T04:00:07.396Z,86.2
2023-02-15T04:05:07.898Z,84.8
2023-02-15T04:10:08.258Z,85.1
2023-02-15T04:15:08.658Z,83.9
2023-02-15T04:20:09.348Z,83.4
2023-02-15T04:25:09.924Z,84.7
2023-02-15T04:30:10.543Z,78.4
2023-02-15T04:35:11.457Z,81.7
2023-02-15T04:40:12.588Z,82.7
2023-02-15T04:45:13.050Z,115
2023-02-15T04:50:13.446Z,87.8
2023-02-15T04:55:13.841Z,94.1
2023-02-15T05:00:14.237Z,99.4
2023-02-15T05:05:14.867Z,103
2023-02-15T05:10:15.267Z,100
2023-02-15T05:15:15.779Z,105.4
2023-02-15T05:20:19.794Z,102.7
2023-02-15T05:25:22.295Z,100.3
2023-02-15T05:30:22.877Z,102.1
2023-02-15T05:35:23.667Z,97.2
2023-02-15T05:40:24.117Z,121.1
2023-02-15T05:45:26.497Z,122.8
2023-02-15T05:50:27.036Z,114.7
2023-02-15T05:55:27.553Z,109.1
2023-02-15T06:00:28.288Z,97
2023-02-15T06:05:29.629Z,101.5
2023-02-15T06:10:30.061Z,110
2023-02-15T06:15:31.282Z,110.4
2023-02-15T06:20:31.814Z,101.3
2023-02-15T06:25:32.318Z,105.6
2023-02-15T06:30:35.044Z,101.8
2023-02-15T06:35:35.688Z,92.4
2023-02-15T06:40:36.231Z,101.5
2023-02-15T06:45:36.681Z,95.1
2023-02-15T06:50:37.122Z,110.9
2023-02-15T06:55:37.479Z,110.2
2023-02-15T07:00:38.542Z,84.9
2023-02-15T07:05:38.960Z,78.7
2023-02-15T07:10:39.900Z,78.4
2023-02-15T07:15:40.349Z,77.7
2023-02-15T07:20:40.797Z,71.9
2023-02-15T07:25:41.172Z,71.4
2023-02-15T07:30:41.521Z,74.8
2023-02-15T07:35:42.134Z,63.6
2023-02-15T07:40:42.889Z,64.5
2023-02-15T07:45:43.281Z,64.6
2023-02-15T07:50:45.155Z,62.2
2023-02-15T07:55:45.504Z,60.8
2023-02-15T08:00:48.688Z,62.5
2023-02-15T08:05:49.278Z,62.2
2023-02-15T08:10:49.692Z,58.3
2023-02-15T08:15:50.103Z,52.2
2023-02-15T08:20:50.654Z,52.8
2023-02-15T08:25:51.321Z,48.6
2023-02-15T08:30:51.850Z,45.7
2023-02-15T08:35:52.583Z,46.1
2023-02-15T08:40:53.681Z,39.7
2023-02-15T08:45:54.160Z,36.1
2023-02-15T08:50:54.723Z,38.4
2023-02-15T08:55:55.184Z,37.6
2023-02-15T09:00:55.635Z,43.8
2023-02-15T09:05:56.524Z,36.1
2023-02-15T09:10:59.907Z,35.4
2023-02-15T09:16:01.091Z,33.4
2023-02-15T09:21:01.693Z,33.1
2023-02-15T09:26:02.570Z,31.8
2023-02-15T09:31:03.380Z,29.9
2023-02-15T09:36:04.672Z,32.4
2023-02-15T09:41:05.468Z,31.2
2023-02-15T09:46:06.009Z,30.3
2023-02-15T09:51:06.651Z,29.8
2023-02-15T09:56:07.204Z,31
2023-02-15T10:01:07.752Z,30
2023-02-15T10:06:08.340Z,33.2
2023-02-15T10:11:08.937Z,28.7
2023-02-15T10:16:09.384Z,29.7
2023-02-15T10:21:10.347Z,28
2023-02-15T10:26:12.430Z,25.8
2023-02-15T10:31:12.860Z,25.5
2023-02-15T10:36:13.776Z,26.6
2023-02-15T10:41:14.421Z,27.8
2023-02-15T10:46:14.938Z,29
2023-02-15T10:51:15.492Z,34
2023-02-15T10:56:16.080Z,32.7
2023-02-15T11:01:16.612Z,29.1
2023-02-15T11:06:17.375Z,29.8
2023-02-15T11:11:18.105Z,27.4
2023-02-15T11:16:19.097Z,25.6
2023-02-15T11:21:19.688Z,27.3
2023-02-15T11:26:20.043Z,27.1
2023-02-15T11:31:20.536Z,28
2023-02-15T11:36:22.360Z,27.2
2023-02-15T11:41:23.139Z,31.8
2023-02-15T11:46:23.534Z,28.3
2023-02-15T11:51:24.440Z,30.6
2023-02-15T11:56:24.950Z,31.5
2023-02-15T12:01:25.438Z,29.3
2023-02-15T12:06:26.253Z,30.1
2023-02-15T12:11:26.614Z,33.1
2023-02-15T12:16:27.159Z,27.6
2023-02-15T12:21:27.818Z,32
2023-02-15T12:26:28.227Z,28.9
2023-02-15T12:31:28.747Z,28
2023-02-15T12:36:29.412Z,27.8
2023-02-15T12:41:29.853Z,27.4
2023-02-15T12:46:30.257Z,29.3
2023-02-15T12:51:43.106Z,32.4
2023-02-15T12:56:44.047Z,28.4
2023-02-15T13:01:44.564Z,30.3
2023-02-15T13:06:44.979Z,31.9
2023-02-15T13:11:45.320Z,32.3
2023-02-15T13:16:45.861Z,31.3
2023-02-15T13:21:47.024Z,32.3
2023-02-15T13:26:47.919Z,34.4
2023-02-15T13:31:49.514Z,35.8
2023-02-15T13:36:50.369Z,37.4
2023-02-15T13:41:51.128Z,35
2023-02-15T13:46:51.695Z,30.9
2023-02-15T13:51:52.351Z,31.4
2023-02-15T13:56:52.746Z,34.1
2023-02-15T14:01:53.191Z,32.6
2023-02-15T14:06:53.876Z,31.8
2023-02-15T14:11:54.528Z,37.3
2023-02-15T14:17:05.993Z,33.1
2023-02-15T14:21:58.066Z,31
2023-02-15T14:26:58.405Z,34.8
2023-02-15T14:31:59.145Z,37.6
2023-02-15T14:37:00.421Z,39
2023-02-15T14:42:01.008Z,34.6
2023-02-15T14:47:01.354Z,51.3
2023-02-15T14:52:01.776Z,43
2023-02-15T14:57:02.367Z,36
2023-02-15T15:02:02.996Z,36.9
2023-02-15T15:07:03.461Z,34.6
2023-02-15T15:12:03.902Z,38.9
2023-02-15T15:17:04.565Z,33.8
2023-02-15T15:22:05.181Z,43.2
2023-02-15T15:27:05.872Z,47.2
2023-02-15T15:32:06.394Z,42.1
2023-02-15T15:37:07.036Z,37.5
2023-02-15T15:42:07.610Z,43
2023-02-15T15:47:08.424Z,38.1
2023-02-15T15:52:09.482Z,43
2023-02-15T15:57:12.122Z,44.7
2023-02-15T16:02:12.765Z,43.1
2023-02-15T16:07:13.392Z,42.3
2023-02-15T16:12:14.934Z,45.8
2023-02-15T16:17:15.327Z,43.7
2023-02-15T16:22:15.890Z,46.9
2023-02-15T16:27:16.234Z,68.4
2023-02-15T16:32:16.685Z,77.1
2023-02-15T16:37:17.483Z,70.1
2023-02-15T16:42:18.211Z,77.3
2023-02-15T16:47:18.768Z,82.7
2023-02-15T16:52:19.341Z,84.1
2023-02-15T16:57:19.789Z,82.1
2023-02-15T17:02:37.460Z,83.8
2023-02-15T17:07:26.154Z,94.6
2023-02-15T17:12:26.609Z,101.8
2023-02-15T17:17:27.108Z,112.1
2023-02-15T17:22:27.584Z,159.3
2023-02-15T17:27:28.253Z,94.1
2023-02-15T17:32:29.786Z,104.2
2023-02-15T17:37:30.731Z,88.8
2023-02-15T17:42:31.810Z,85
2023-02-15T17:47:35.583Z,87.1
2023-02-15T17:52:36.130Z,83.2
2023-02-15T17:57:36.814Z,91.4
2023-02-15T18:02:38.192Z,87.8
2023-02-15T18:07:39.221Z,85.8
2023-02-15T18:12:41.036Z,82.8
2023-02-15T18:17:41.769Z,76.3
2023-02-15T18:22:44.677Z,84.9
2023-02-15T18:27:48.312Z,93.1
2023-02-15T18:32:50.295Z,95.1
2023-02-15T18:37:52.197Z,101.7
2023-02-15T18:42:53.852Z,105.7
2023-02-15T18:47:54.604Z,105.2
2023-02-15T18:52:55.059Z,100
2023-02-15T18:57:55.479Z,94.9
2023-02-15T19:02:56.532Z,90.1
2023-02-15T19:07:57.043Z,80.8
2023-02-15T19:12:57.604Z,84.2
2023-02-15T19:17:58.047Z,75.5
2023-02-15T19:22:58.718Z,95.6
2023-02-15T19:27:59.149Z,74.3
2023-02-15T19:32:59.549Z,96.5
2023-02-15T19:38:00.045Z,86.3
2023-02-15T19:43:00.837Z,84.3
2023-02-15T19:48:03.788Z,84.8
2023-02-15T19:53:04.874Z,76.4
2023-02-15T19:58:08.596Z,95.2
2023-02-15T20:03:11.343Z,83.9
2023-02-15T20:08:11.965Z,90
2023-02-15T20:13:12.440Z,98
2023-02-15T20:18:13.261Z,108
2023-02-15T20:23:15.001Z,110.9
2023-02-15T20:28:15.432Z,104.9
2023-02-15T20:33:16.198Z,107.2
2023-02-15T20:38:21.115Z,115.6
2023-02-15T20:43:21.845Z,106.9
2023-02-15T20:48:23.262Z,120.9
2023-02-15T20:53:23.670Z,116
2023-02-15T20:58:27.228Z,143.8
2023-02-15T21:03:27.658Z,144
2023-02-15T21:08:28.198Z,197
2023-02-15T21:13:28.847Z,191.6
2023-02-15T21:18:29.314Z,212.9
2023-02-15T21:23:29.733Z,249.6
2023-02-15T21:28:30.237Z,268.7
2023-02-15T21:33:30.679Z,244.4
2023-02-15T21:38:31.106Z,212.3
2023-02-15T21:43:31.717Z,200.2
2023-02-15T21:48:32.139Z,214.2
2023-02-15T21:53:33.432Z,215.7
2023-02-15T21:58:34.319Z,216.4
2023-02-15T22:03:34.962Z,261.8
2023-02-15T22:08:36.033Z,320.9
2023-02-15T22:13:36.531Z,212.3
2023-02-15T22:18:37.245Z,194.6
2023-02-15T22:23:38.320Z,154.7
2023-02-15T22:28:38.869Z,139.4
2023-02-15T22:33:39.447Z,163.8
2023-02-15T22:38:40.012Z,203.6
2023-02-15T22:43:40.934Z,179.2
2023-02-15T22:48:41.532Z,185.5
2023-02-15T22:53:42.158Z,199.8
2023-02-15T22:58:43.031Z,201.9
2023-02-15T23:03:44.050Z,187
2023-02-15T23:08:44.639Z,193.1
2023-02-15T23:13:45.073Z,190.6
2023-02-15T23:18:45.470Z,214.7
2023-02-15T23:23:45.873Z,206.1
2023-02-15T23:28:46.334Z,215.6
2023-02-15T23:33:47.786Z,211
2023-02-15T23:38:48.212Z,215.3
2023-02-15T23:43:48.661Z,229.4
2023-02-15T23:48:49.125Z,237.4
2023-02-15T23:53:49.617Z,233.8
2023-02-15T23:58:50.227Z,222.5
